Time,TemperatureF,DewpointF,PressureIn,WindDirection,WindDirectionDegrees,WindSpeedMPH,WindSpeedGustMPH,Humidity,HourlyPrecipIn,Conditions,Clouds,dailyrainin,SoftwareType,DateUTC
2013-03-25 00:02:00,69.0,-99.9,-100.00,SSE,168,0.0,10.0,-999,-99.99,,,-99.99,,2013-03-25 07:02:00,
2013-03-25 00:13:00,69.0,-99.9,-100.00,SSE,168,0.0,10.0,-999,-99.99,,,-99.99,,2013-03-25 07:13:00,
2013-03-25 00:22:00,68.0,-99.9,-100.00,SSE,154,1.0,11.0,-999,-99.99,,,-99.99,,2013-03-25 07:22:00,
2013-03-25 00:32:00,68.0,-99.9,-100.00,SSE,154,1.0,11.0,-999,-99.99,,,-99.99,,2013-03-25 07:32:00,
2013-03-25 00:50:00,66.0,-99.9,-100.00,ESE,108,0.0,3.0,-999,-99.99,,,-99.99,,2013-03-25 07:50:00,
2013-03-25 01:03:00,66.0,-99.9,-100.00,SSW,201,0.0,0.0,-999,-99.99,,,-99.99,,2013-03-25 08:03:00,
2013-03-25 01:12:00,66.0,-99.9,-100.00,SSW,201,0.0,0.0,-999,-99.99,,,-99.99,,2013-03-25 08:12:00,
2013-03-25 01:23:00,66.0,-99.9,-100.00,South,169,2.0,2.0,-999,-99.99,,,-99.99,,2013-03-25 08:23:00,
2013-03-25 01:32:00,66.0,-99.9,-100.00,ESE,108,0.0,3.0,-999,-99.99,,,-99.99,,2013-03-25 08:32:00,
2013-03-25 01:43:00,66.0,-99.9,-100.00,ESE,108,0.0,3.0,-999,-99.99,,,-99.99,,2013-03-25 08:43:00,
2013-03-25 03:23:00,64.0,-99.9,-100.00,ENE,77,1.0,1.0,-999,-99.99,,,-99.99,,2013-03-25 10:23:00,
2013-03-25 03:33:00,64.0,-99.9,-100.00,ENE,77,1.0,1.0,-999,-99.99,,,-99.99,,2013-03-25 10:33:00,
2013-03-25 03:43:00,64.0,-99.9,-100.00,ENE,77,1.0,1.0,-999,-99.99,,,-99.99,,2013-03-25 10:43:00,
2013-03-25 05:50:00,61.0,-99.9,-100.00,South,187,0.0,2.0,-999,-99.99,,,-99.99,,2013-03-25 12:50:00,
2013-03-25 06:32:00,61.0,-99.9,-100.00,South,187,0.0,2.0,-999,-99.99,,,-99.99,,2013-03-25 13:32:00,
2013-03-25 06:43:00,61.0,-99.9,-100.00,South,187,0.0,2.0,-999,-99.99,,,-99.99,,2013-03-25 13:43:00,
2013-03-25 08:50:00,72.0,-99.9,-100.00,WSW,252,0.0,2.0,-999,-99.99,,,-99.99,,2013-03-25 15:50:00,
2013-03-25 09:34:00,72.0,-99.9,-100.00,WSW,252,0.0,2.0,-999,-99.99,,,-99.99,,2013-03-25 16:34:00,
2013-03-25 09:44:00,72.0,-99.9,-100.00,WSW,252,0.0,2.0,-999,-99.99,,,-99.99,,2013-03-25 16:44:00,
2013-03-25 10:50:00,86.0,-99.9,-100.00,ESE,117,1.0,1.0,-999,-99.99,,,-99.99,,2013-03-25 17:50:00,
2013-03-25 11:33:00,86.0,-99.9,-100.00,ESE,117,1.0,1.0,-999,-99.99,,,-99.99,,2013-03-25 18:33:00,
2013-03-25 11:43:00,86.0,-99.9,-100.00,ESE,117,1.0,1.0,-999,-99.99,,,-99.99,,2013-03-25 18:43:00,
2013-03-25 12:03:00,85.0,-99.9,-100.00,South,179,0.0,1.0,-999,-99.99,,,-99.99,,2013-03-25 19:03:00,
2013-03-25 12:13:00,85.0,-99.9,-100.00,South,179,0.0,1.0,-999,-99.99,,,-99.99,,2013-03-25 19:13:00,
2013-03-25 12:23:00,85.0,-99.9,-100.00,South,179,0.0,1.0,-999,-99.99,,,-99.99,,2013-03-25 19:23:00,
2013-03-25 12:33:00,81.0,-99.9,-100.00,ENE,75,6.0,9.0,-999,-99.99,,,-99.99,,2013-03-25 19:33:00,
2013-03-25 12:43:00,81.0,-99.9,-100.00,ENE,75,6.0,9.0,-999,-99.99,,,-99.99,,2013-03-25 19:43:00,
2013-03-25 14:40:00,85.0,-99.9,-100.00,SSW,202,0.0,4.0,-999,-99.99,,,-99.99,,2013-03-25 21:40:00,
2013-03-25 15:04:00,83.0,-99.9,-100.00,East,91,1.0,8.0,-999,-99.99,,,-99.99,,2013-03-25 22:04:00,
2013-03-25 15:13:00,83.0,-99.9,-100.00,East,91,1.0,8.0,-999,-99.99,,,-99.99,,2013-03-25 22:13:00,
2013-03-25 15:24:00,85.0,-99.9,-100.00,SSW,202,0.0,4.0,-999,-99.99,,,-99.99,,2013-03-25 22:24:00,
2013-03-25 15:33:00,85.0,-99.9,-100.00,SSW,202,0.0,4.0,-999,-99.99,,,-99.99,,2013-03-25 22:33:00,
2013-03-25 16:03:00,84.0,-99.9,-100.00,South,173,1.0,5.0,-999,-99.99,,,-99.99,,2013-03-25 23:03:00,
2013-03-25 16:12:00,84.0,-99.9,-100.00,South,173,1.0,5.0,-999,-99.99,,,-99.99,,2013-03-25 23:12:00,
2013-03-25 16:23:00,84.0,-99.9,-100.00,South,173,1.0,5.0,-999,-99.99,,,-99.99,,2013-03-25 23:23:00,
2013-03-25 19:02:00,82.0,-99.9,-100.00,ENE,65,3.0,6.0,-999,-99.99,,,-99.99,,2013-03-26 02:02:00,
2013-03-25 19:12:00,82.0,-99.9,-100.00,ENE,65,3.0,6.0,-999,-99.99,,,-99.99,,2013-03-26 02:12:00,
2013-03-25 19:23:00,82.0,-99.9,-100.00,ENE,65,3.0,6.0,-999,-99.99,,,-99.99,,2013-03-26 02:23:00,
2013-03-25 20:22:00,80.0,-99.9,-100.00,East,89,3.0,3.0,-999,-99.99,,,-99.99,,2013-03-26 03:22:00,
2013-03-25 20:34:00,79.0,-99.9,-100.00,East,97,6.0,7.0,-999,-99.99,,,-99.99,,2013-03-26 03:34:00,
2013-03-25 20:43:00,79.0,-99.9,-100.00,East,97,6.0,7.0,-999,-99.99,,,-99.99,,2013-03-26 03:43:00,
2013-03-25 20:53:00,79.0,-99.9,-100.00,ENE,78,5.0,5.0,-999,-99.99,,,-99.99,,2013-03-26 03:53:00,
2013-03-25 21:04:00,79.0,-99.9,-100.00,ENE,69,4.0,5.0,-999,-99.99,,,-99.99,,2013-03-26 04:04:00,
2013-03-25 21:13:00,79.0,-99.9,-100.00,ENE,69,4.0,5.0,-999,-99.99,,,-99.99,,2013-03-26 04:13:00,
2013-03-25 21:23:00,78.0,-99.9,-100.00,SSW,208,0.0,0.0,-999,-99.99,,,-99.99,,2013-03-26 04:23:00,
2013-03-25 21:33:00,78.0,-99.9,-100.00,SSW,208,0.0,0.0,-999,-99.99,,,-99.99,,2013-03-26 04:33:00,
2013-03-25 21:43:00,78.0,-99.9,-100.00,SSW,208,0.0,0.0,-999,-99.99,,,-99.99,,2013-03-26 04:43:00,
2013-03-25 22:50:00,76.0,-99.9,-100.00,East,97,0.0,5.0,-999,-99.99,,,-99.99,,2013-03-26 05:50:00,
2013-03-25 22:52:00,76.0,-99.9,-100.00,East,99,2.0,2.0,-999,-99.99,,,-99.99,,2013-03-26 05:52:00,
2013-03-25 23:02:00,76.0,-99.9,-100.00,East,99,2.0,2.0,-999,-99.99,,,-99.99,,2013-03-26 06:02:00,
2013-03-25 23:32:00,76.0,-99.9,-100.00,East,97,0.0,5.0,-999,-99.99,,,-99.99,,2013-03-26 06:32:00,
2013-03-25 23:43:00,76.0,-99.9,-100.00,East,97,0.0,5.0,-999,-99.99,,,-99.99,,2013-03-26 06:43:00,